createdAt,value
2018-12-02T00:00:41.789Z,10.00
2018-12-02T00:03:14.136Z,9.70
2018-12-02T00:05:46.636Z,9.25
2018-12-02T00:08:19.081Z,10.48
2018-12-02T00:10:51.606Z,10.05
2018-12-02T00:13:23.584Z,8.28
2018-12-02T00:15:56.053Z,11.80
2018-12-02T00:18:28.405Z,12.90
2018-12-02T00:21:00.579Z,9.95
2018-12-02T00:23:32.989Z,12.55
2018-12-02T00:26:05.332Z,13.10
2018-12-02T00:28:38.006Z,14.70
2018-12-02T00:31:10.941Z,13.05
2018-12-02T00:33:43.102Z,17.35
2018-12-02T00:36:15.283Z,18.42
2018-12-02T00:38:47.542Z,28.25
2018-12-02T00:41:20.077Z,17.82
2018-12-02T00:43:52.431Z,16.42
2018-12-02T00:46:24.966Z,14.70
2018-12-02T00:48:57.700Z,18.10
2018-12-02T00:51:29.998Z,16.70
2018-12-02T00:54:02.597Z,13.93
2018-12-02T00:56:35.874Z,18.37
2018-12-02T00:59:08.398Z,14.28
2018-12-02T01:01:41.060Z,16.10
2018-12-02T01:04:13.570Z,14.93
2018-12-02T01:06:45.913Z,18.65
2018-12-02T01:09:18.379Z,20.50
2018-12-02T01:11:50.717Z,16.23
2018-12-02T01:14:23.238Z,28.80
2018-12-02T01:16:55.346Z,27.93
2018-12-02T01:19:27.765Z,24.25
2018-12-02T01:21:59.825Z,26.23
2018-12-02T01:24:32.232Z,35.03
2018-12-02T01:27:04.589Z,24.02
2018-12-02T01:29:36.951Z,28.55
2018-12-02T01:32:09.275Z,32.88
2018-12-02T01:34:41.901Z,30.52
2018-12-02T01:37:14.845Z,39.25
2018-12-02T01:39:47.393Z,30.20
2018-12-02T01:42:20.193Z,31.80
2018-12-02T01:44:52.616Z,31.30
2018-12-02T01:47:25.130Z,29.30
2018-12-02T01:49:57.335Z,25.85
2018-12-02T01:52:29.296Z,25.02
2018-12-02T01:55:01.491Z,27.55
2018-12-02T01:57:33.799Z,34.67
2018-12-02T02:00:13.437Z,35.13
2018-12-02T02:02:45.968Z,27.42
2018-12-02T02:05:19.544Z,33.45
2018-12-02T02:07:51.859Z,30.23
2018-12-02T02:10:30.044Z,29.07
2018-12-02T02:13:02.399Z,26.62
2018-12-02T02:15:34.730Z,30.55
2018-12-02T02:18:07.531Z,31.45
2018-12-02T02:20:40.110Z,32.78
2018-12-02T02:23:12.310Z,29.65
2018-12-02T02:25:44.648Z,27.95
2018-12-02T02:28:17.775Z,29.12
2018-12-02T02:30:50.474Z,28.38
2018-12-02T02:33:22.733Z,28.40
2018-12-02T02:35:55.161Z,31.45
2018-12-02T02:38:27.573Z,31.70
2018-12-02T02:41:00.171Z,30.85
2018-12-02T02:43:32.516Z,40.78
2018-12-02T02:46:04.940Z,38.05
2018-12-02T02:48:37.288Z,38.10
2018-12-02T02:51:09.680Z,34.88
2018-12-02T02:53:42.207Z,36.58
2018-12-02T02:56:14.414Z,49.38
2018-12-02T02:58:46.925Z,30.57
2018-12-02T03:01:19.365Z,38.28
2018-12-02T03:03:51.963Z,37.45
2018-12-02T03:06:24.328Z,41.50
2018-12-02T03:08:56.668Z,41.45
2018-12-02T03:11:29.363Z,44.35
2018-12-02T03:14:01.595Z,34.75
2018-12-02T03:16:33.854Z,33.15
2018-12-02T03:19:06.329Z,41.00
2018-12-02T03:21:38.905Z,43.68
2018-12-02T03:24:11.399Z,36.93
2018-12-02T03:26:43.684Z,39.23
2018-12-02T03:29:15.700Z,32.70
2018-12-02T03:31:53.488Z,35.25
2018-12-02T03:34:26.346Z,40.17
2018-12-02T03:36:58.890Z,36.98
2018-12-02T03:39:31.332Z,38.10
2018-12-02T03:42:05.112Z,46.90
2018-12-02T03:44:38.121Z,38.98
2018-12-02T03:47:11.464Z,37.75
2018-12-02T03:49:44.912Z,36.48
2018-12-02T03:52:18.269Z,46.80
2018-12-02T03:54:50.929Z,50.52
2018-12-02T03:57:22.825Z,47.05
2018-12-02T03:59:55.341Z,39.70
2018-12-02T04:02:28.010Z,36.88
2018-12-02T04:05:00.408Z,43.52
2018-12-02T04:07:32.722Z,40.92
2018-12-02T04:10:05.428Z,38.70
2018-12-02T04:12:38.438Z,53.40
2018-12-02T04:15:14.195Z,41.02
2018-12-02T04:17:46.929Z,48.58
2018-12-02T04:20:19.954Z,59.13
2018-12-02T04:22:53.239Z,51.40
2018-12-02T04:25:27.207Z,36.13
2018-12-02T04:27:59.356Z,35.65
2018-12-02T04:30:31.502Z,40.80
2018-12-02T04:33:03.307Z,39.70
2018-12-02T04:35:35.256Z,36.30
2018-12-02T04:38:07.234Z,42.62
2018-12-02T04:40:39.589Z,37.67
2018-12-02T04:43:12.197Z,41.33
2018-12-02T04:45:44.638Z,38.35
2018-12-02T04:48:16.951Z,41.65
2018-12-02T04:50:49.954Z,38.40
2018-12-02T04:53:21.999Z,44.42
2018-12-02T04:55:54.065Z,34.65
2018-12-02T04:58:27.255Z,31.52
2018-12-02T05:01:00.044Z,30.60
2018-12-02T05:03:32.798Z,30.15
2018-12-02T05:06:04.971Z,28.83
2018-12-02T05:08:37.555Z,28.45
2018-12-02T05:11:09.828Z,28.87
2018-12-02T05:13:42.683Z,33.75
2018-12-02T05:16:15.723Z,37.53
2018-12-02T05:18:48.026Z,31.75
2018-12-02T05:21:20.404Z,31.75
2018-12-02T05:23:53.622Z,32.45
2018-12-02T05:26:25.931Z,32.98
2018-12-02T05:28:58.091Z,38.50
2018-12-02T05:31:30.607Z,38.02
2018-12-02T05:34:02.960Z,33.98
2018-12-02T05:36:35.712Z,33.45
2018-12-02T05:39:10.262Z,31.02
2018-12-02T05:41:47.036Z,29.18
2018-12-02T05:44:19.184Z,31.48
2018-12-02T05:46:52.555Z,30.35
2018-12-02T05:49:24.671Z,33.23
2018-12-02T05:51:56.858Z,30.75
2018-12-02T05:54:28.747Z,32.10
2018-12-02T05:57:00.616Z,34.00
2018-12-02T05:59:33.134Z,38.23
2018-12-02T06:02:05.292Z,34.38
2018-12-02T06:04:37.474Z,34.63
2018-12-02T06:07:09.809Z,36.23
2018-12-02T06:09:42.206Z,36.00
2018-12-02T06:12:14.120Z,35.30
2018-12-02T06:14:46.024Z,33.48
2018-12-02T06:17:18.408Z,38.25
2018-12-02T06:19:51.002Z,35.63
2018-12-02T06:22:22.952Z,35.30
2018-12-02T06:24:55.314Z,39.30
2018-12-02T06:27:27.920Z,38.58
2018-12-02T06:30:00.487Z,33.85
2018-12-02T06:32:33.044Z,30.90
2018-12-02T06:35:05.629Z,34.27
2018-12-02T06:37:37.951Z,35.48
2018-12-02T06:40:14.171Z,28.10
2018-12-02T06:42:46.551Z,30.95
2018-12-02T06:45:18.999Z,27.00
2018-12-02T06:47:51.120Z,32.90
2018-12-02T06:50:28.903Z,31.25
2018-12-02T06:53:01.415Z,30.05
2018-12-02T06:55:52.723Z,26.15
2018-12-02T06:58:33.135Z,31.07
2018-12-02T07:01:16.268Z,26.93
2018-12-02T07:04:02.842Z,29.67
2018-12-02T07:06:35.092Z,29.52
2018-12-02T07:09:09.112Z,31.97
2018-12-02T07:11:41.476Z,30.20
2018-12-02T07:14:13.766Z,48.60
2018-12-02T07:16:46.652Z,33.02
2018-12-02T07:19:22.849Z,42.17
2018-12-02T07:21:59.089Z,25.20
2018-12-02T07:24:34.625Z,25.80
2018-12-02T07:27:07.260Z,24.23
2018-12-02T07:29:40.030Z,22.20
2018-12-02T07:32:12.383Z,29.35
2018-12-02T07:34:44.932Z,24.77
2018-12-02T07:37:19.195Z,29.20
2018-12-02T07:40:12.012Z,33.78
2018-12-02T07:42:44.571Z,26.27
2018-12-02T07:45:16.959Z,30.68
2018-12-02T07:47:49.415Z,32.65
2018-12-02T07:50:22.071Z,36.68
2018-12-02T07:52:54.228Z,31.77
2018-12-02T07:55:27.008Z,28.60
2018-12-02T07:57:59.436Z,32.60
2018-12-02T08:00:31.705Z,33.65
2018-12-02T08:03:05.485Z,33.48
2018-12-02T08:05:38.003Z,36.00
2018-12-02T08:08:10.455Z,34.27
2018-12-02T08:10:42.769Z,36.83
2018-12-02T08:13:15.182Z,34.18
2018-12-02T08:15:47.465Z,36.50
2018-12-02T08:18:19.505Z,40.52
2018-12-02T08:20:51.669Z,37.73
2018-12-02T08:23:24.047Z,34.67
2018-12-02T08:25:56.416Z,33.33
2018-12-02T08:28:28.940Z,39.40
2018-12-02T08:31:01.312Z,42.45
2018-12-02T08:33:33.582Z,38.85
2018-12-02T08:36:05.999Z,41.25
2018-12-02T08:38:38.164Z,41.85
2018-12-02T08:41:10.493Z,41.77
2018-12-02T08:43:42.918Z,48.60
2018-12-02T08:46:15.231Z,43.85
2018-12-02T08:48:47.772Z,42.53
2018-12-02T08:51:20.046Z,49.38
2018-12-02T08:53:52.380Z,36.93
2018-12-02T08:56:24.352Z,48.78
2018-12-02T08:58:56.641Z,38.90
2018-12-02T09:01:28.727Z,46.73
2018-12-02T09:04:01.289Z,40.38
2018-12-02T09:06:33.676Z,45.80
2018-12-02T09:09:07.944Z,48.83
2018-12-02T09:11:40.060Z,41.92
2018-12-02T09:14:12.555Z,39.75
2018-12-02T09:16:44.893Z,46.08
2018-12-02T09:19:17.145Z,40.30
2018-12-02T09:21:49.434Z,41.40
2018-12-02T09:24:21.598Z,44.38
2018-12-02T09:26:53.821Z,40.85
2018-12-02T09:29:26.210Z,35.03
2018-12-02T09:31:58.391Z,27.25
2018-12-02T09:34:30.638Z,31.60
2018-12-02T09:37:03.004Z,28.00
2018-12-02T09:39:35.325Z,29.50
2018-12-02T09:42:07.705Z,30.08
2018-12-02T09:44:40.071Z,35.43
2018-12-02T09:47:12.347Z,34.03
2018-12-02T09:49:45.142Z,41.15
2018-12-02T09:52:17.335Z,38.67
2018-12-02T09:54:49.469Z,35.75
2018-12-02T09:57:22.126Z,35.60
2018-12-02T09:59:54.248Z,42.50
2018-12-02T10:02:26.289Z,34.85
2018-12-02T10:04:58.587Z,33.23
2018-12-02T10:07:30.807Z,36.68
2018-12-02T10:10:03.140Z,28.47
2018-12-02T10:12:35.160Z,27.20
2018-12-02T10:15:08.426Z,27.42
2018-12-02T10:17:40.823Z,31.37
2018-12-02T10:20:15.750Z,33.88
2018-12-02T10:22:48.314Z,29.27
2018-12-02T10:25:21.200Z,27.77
2018-12-02T10:27:53.415Z,32.13
2018-12-02T10:30:26.600Z,30.85
2018-12-02T10:32:59.354Z,31.42
2018-12-02T10:35:31.722Z,24.90
2018-12-02T10:38:03.737Z,32.42
2018-12-02T10:40:35.988Z,27.30
2018-12-02T10:43:08.643Z,21.87
2018-12-02T10:45:40.917Z,21.37
2018-12-02T10:48:13.807Z,22.85
2018-12-02T10:50:46.302Z,19.52
2018-12-02T10:53:20.792Z,31.10
2018-12-02T10:55:53.999Z,24.80
2018-12-02T10:58:27.920Z,25.92
2018-12-02T11:01:05.985Z,23.12
2018-12-02T11:03:38.596Z,22.17
2018-12-02T11:06:10.759Z,41.18
2018-12-02T11:08:42.739Z,39.05
2018-12-02T11:11:15.328Z,40.78
2018-12-02T11:13:47.344Z,57.58
2018-12-02T11:16:19.328Z,46.58
2018-12-02T11:18:51.259Z,35.17
2018-12-02T11:21:23.394Z,30.00
2018-12-02T11:23:55.885Z,24.98
2018-12-02T11:26:28.272Z,30.43
2018-12-02T11:29:00.527Z,47.62
2018-12-02T11:31:33.046Z,50.35
2018-12-02T11:34:05.368Z,50.28
2018-12-02T11:36:37.458Z,40.20
2018-12-02T11:39:11.797Z,32.17
2018-12-02T11:41:43.962Z,28.62
2018-12-02T11:44:16.665Z,31.62
2018-12-02T11:46:48.983Z,30.92
2018-12-02T11:49:21.275Z,23.45
2018-12-02T11:51:53.806Z,19.50
2018-12-02T11:54:26.136Z,18.95
2018-12-02T11:56:57.908Z,19.07
2018-12-02T11:59:30.092Z,17.62
2018-12-02T12:02:07.522Z,20.80
2018-12-02T12:04:35.476Z,18.25
2018-12-02T12:07:07.855Z,22.00
2018-12-02T12:09:40.051Z,25.12
2018-12-02T12:12:12.093Z,51.88
2018-12-02T12:14:44.402Z,73.22
2018-12-02T12:17:16.664Z,41.30
2018-12-02T12:19:48.946Z,33.18
2018-12-02T12:22:21.636Z,25.75
2018-12-02T12:24:54.115Z,26.65
2018-12-02T12:27:26.391Z,30.82
2018-12-02T12:29:58.712Z,29.23
2018-12-02T12:32:30.842Z,31.10
2018-12-02T12:35:03.134Z,16.15
2018-12-02T12:37:35.486Z,22.15
2018-12-02T12:40:25.872Z,20.20
2018-12-02T12:43:01.178Z,20.20
2018-12-02T12:45:33.563Z,21.42
2018-12-02T12:48:06.021Z,24.18
2018-12-02T12:50:38.107Z,23.05
2018-12-02T12:53:10.333Z,21.93
2018-12-02T12:55:42.838Z,20.60
2018-12-02T12:58:16.185Z,26.00
2018-12-02T13:00:48.364Z,24.67
2018-12-02T13:03:20.602Z,30.30
2018-12-02T13:05:52.717Z,27.00
2018-12-02T13:08:24.827Z,27.40
2018-12-02T13:10:56.939Z,24.07
2018-12-02T13:13:29.731Z,23.65
2018-12-02T13:16:02.200Z,24.37
2018-12-02T13:18:34.615Z,18.42
2018-12-02T13:21:06.726Z,19.77
2018-12-02T13:23:39.074Z,14.40
2018-12-02T13:26:11.183Z,16.90
2018-12-02T13:28:43.639Z,15.15
2018-12-02T13:31:15.745Z,17.10
2018-12-02T13:33:47.944Z,15.63
2018-12-02T13:36:20.118Z,23.47
2018-12-02T13:38:52.155Z,23.75
2018-12-02T13:41:24.574Z,27.37
2018-12-02T13:43:57.043Z,20.25
2018-12-02T13:46:29.354Z,12.82
2018-12-02T13:49:01.645Z,15.35
2018-12-02T13:51:33.755Z,12.98
2018-12-02T13:54:10.489Z,13.90
2018-12-02T13:56:42.400Z,14.18
2018-12-02T13:59:14.858Z,16.80
2018-12-02T14:01:48.132Z,20.27
2018-12-02T14:04:20.378Z,15.90
2018-12-02T14:06:52.721Z,17.98
2018-12-02T14:09:24.812Z,13.83
2018-12-02T14:11:57.363Z,20.37
2018-12-02T14:14:29.690Z,22.25
2018-12-02T14:17:07.788Z,17.92
2018-12-02T14:19:40.224Z,16.90
2018-12-02T14:22:12.709Z,17.32
2018-12-02T14:24:45.287Z,16.00
2018-12-02T14:27:17.346Z,13.78
2018-12-02T14:29:52.320Z,18.52
2018-12-02T14:32:25.103Z,17.82
2018-12-02T14:34:57.404Z,19.75
2018-12-02T14:37:29.841Z,18.42
2018-12-02T14:40:02.174Z,15.13
2018-12-02T14:42:34.508Z,16.87
2018-12-02T14:45:07.362Z,13.83
2018-12-02T14:47:39.867Z,13.60
2018-12-02T14:50:14.381Z,14.75
2018-12-02T14:52:47.251Z,14.05
2018-12-02T14:55:20.609Z,19.02
2018-12-02T14:57:52.834Z,15.03
2018-12-02T15:00:25.123Z,14.75
2018-12-02T15:02:57.619Z,18.17
2018-12-02T15:05:29.826Z,15.30
2018-12-02T15:08:01.922Z,19.77
2018-12-02T15:10:34.316Z,23.92
2018-12-02T15:13:07.310Z,21.17
2018-12-02T15:15:39.555Z,24.45
2018-12-02T15:18:11.417Z,21.57
2018-12-02T15:20:43.482Z,24.72
2018-12-02T15:23:15.795Z,20.95
2018-12-02T15:25:48.021Z,16.52
2018-12-02T15:28:20.346Z,18.77
2018-12-02T15:30:52.371Z,17.67
2018-12-02T15:33:24.818Z,18.55
2018-12-02T15:35:57.093Z,18.10
2018-12-02T15:38:29.553Z,21.37
2018-12-02T15:41:02.008Z,17.17
2018-12-02T15:43:34.145Z,18.12
2018-12-02T15:46:06.153Z,27.93
2018-12-02T15:48:39.211Z,22.13
2018-12-02T15:51:11.296Z,18.80
2018-12-02T15:53:43.842Z,20.95
2018-12-02T15:56:16.354Z,18.40
2018-12-02T15:58:49.584Z,18.40
2018-12-02T16:01:22.306Z,21.65
2018-12-02T16:03:54.593Z,18.35
2018-12-02T16:06:27.011Z,20.48
2018-12-02T16:08:59.130Z,20.92
2018-12-02T16:11:31.471Z,24.67
2018-12-02T16:14:03.607Z,26.48
2018-12-02T16:16:36.223Z,21.40
2018-12-02T16:19:08.322Z,22.27
2018-12-02T16:21:40.948Z,20.37
2018-12-02T16:24:13.407Z,19.67
2018-12-02T16:26:45.606Z,16.55
2018-12-02T16:29:17.779Z,17.52
2018-12-02T16:31:50.195Z,15.35
2018-12-02T16:34:22.344Z,19.85
2018-12-02T16:36:54.594Z,19.07
2018-12-02T16:39:26.959Z,17.92
2018-12-02T16:41:59.150Z,20.60
2018-12-02T16:44:31.209Z,15.25
2018-12-02T16:47:03.794Z,16.67
2018-12-02T16:49:36.133Z,20.12
2018-12-02T16:52:08.584Z,21.70
2018-12-02T16:54:40.593Z,19.77
2018-12-02T16:57:14.154Z,16.87
2018-12-02T16:59:47.032Z,18.07
2018-12-02T17:02:19.283Z,15.00
2018-12-02T17:04:51.463Z,20.68
2018-12-02T17:07:23.950Z,21.35
2018-12-02T17:09:56.349Z,12.63
2018-12-02T17:12:28.361Z,13.72
2018-12-02T17:15:00.384Z,11.10
2018-12-02T17:17:32.510Z,14.65
2018-12-02T17:20:04.900Z,16.02
2018-12-02T17:22:37.334Z,21.35
2018-12-02T17:25:11.459Z,20.92
2018-12-02T17:27:44.231Z,29.77
2018-12-02T17:30:19.761Z,29.10
2018-12-02T17:32:52.097Z,12.75
2018-12-02T17:35:25.463Z,11.35
2018-12-02T17:37:57.828Z,16.85
2018-12-02T17:40:30.090Z,10.03
2018-12-02T17:43:02.335Z,11.60
2018-12-02T17:45:34.480Z,18.55
2018-12-02T17:48:06.895Z,13.85
2018-12-02T17:50:39.505Z,21.50
2018-12-02T17:53:13.642Z,10.75
2018-12-02T17:55:46.115Z,31.30
2018-12-02T17:58:19.064Z,19.82
2018-12-02T18:00:51.154Z,14.07
2018-12-02T18:03:28.618Z,17.67
2018-12-02T18:06:01.226Z,14.23
2018-12-02T18:08:33.359Z,15.05
2018-12-02T18:11:05.537Z,8.75
2018-12-02T18:13:37.773Z,13.10
2018-12-02T18:16:10.116Z,11.85
2018-12-02T18:18:42.319Z,10.20
2018-12-02T18:21:14.626Z,10.00
2018-12-02T18:23:47.052Z,12.68
2018-12-02T18:26:19.527Z,15.08
2018-12-02T18:28:52.176Z,9.93
2018-12-02T18:31:24.191Z,7.28
2018-12-02T18:33:56.393Z,8.30
2018-12-02T18:36:32.595Z,8.78
2018-12-02T18:39:06.093Z,7.53
2018-12-02T18:41:41.484Z,7.33
2018-12-02T18:44:16.043Z,8.20
2018-12-02T18:46:48.534Z,9.08
2018-12-02T18:49:21.199Z,9.35
2018-12-02T18:51:52.927Z,8.10
2018-12-02T18:54:25.740Z,8.53
2018-12-02T18:56:58.744Z,8.10
2018-12-02T18:59:31.898Z,6.50
2018-12-02T19:02:04.226Z,7.47
2018-12-02T19:04:36.393Z,6.07
2018-12-02T19:07:08.796Z,6.30
2018-12-02T19:09:40.967Z,4.80
2018-12-02T19:12:13.303Z,5.50
2018-12-02T19:14:45.758Z,6.47
2018-12-02T19:17:18.072Z,5.43
2018-12-02T19:19:50.082Z,4.60
2018-12-02T19:22:22.444Z,6.53
2018-12-02T19:24:54.837Z,5.80
2018-12-02T19:27:27.132Z,5.47
2018-12-02T19:29:59.548Z,6.40
2018-12-02T19:32:31.506Z,7.33
2018-12-02T19:35:03.704Z,6.53
2018-12-02T19:37:35.770Z,6.50
2018-12-02T19:40:11.160Z,6.33
2018-12-02T19:42:44.155Z,6.50
2018-12-02T19:45:19.448Z,5.53
2018-12-02T19:47:51.949Z,5.10
2018-12-02T19:50:24.199Z,5.37
2018-12-02T19:52:56.732Z,6.50
2018-12-02T19:55:28.941Z,6.00
2018-12-02T19:58:02.174Z,6.30
2018-12-02T20:00:39.319Z,4.70
2018-12-02T20:03:13.010Z,29.33
2018-12-02T20:05:45.471Z,10.63
2018-12-02T20:08:19.105Z,10.27
2018-12-02T20:10:54.409Z,14.87
2018-12-02T20:13:26.729Z,7.50
2018-12-02T20:16:03.520Z,8.80
2018-12-02T20:18:35.988Z,7.37
2018-12-02T20:21:08.793Z,5.27
2018-12-02T20:23:45.543Z,6.10
2018-12-02T20:26:18.074Z,7.50
2018-12-02T20:28:52.761Z,5.93
2018-12-02T20:31:27.357Z,7.63
2018-12-02T20:33:59.932Z,6.27
2018-12-02T20:36:32.311Z,9.20
2018-12-02T20:39:06.211Z,11.73
2018-12-02T20:41:38.548Z,9.63
2018-12-02T20:44:10.756Z,5.40
2018-12-02T20:46:43.171Z,7.73
2018-12-02T20:49:15.681Z,9.77
2018-12-02T20:51:48.246Z,6.20
2018-12-02T20:54:20.685Z,5.33
2018-12-02T20:56:53.162Z,5.00
2018-12-02T20:59:25.772Z,6.23
2018-12-02T21:01:58.219Z,6.83
2018-12-02T21:04:30.579Z,6.27
2018-12-02T21:07:03.134Z,7.50
2018-12-02T21:09:35.343Z,6.30
2018-12-02T21:12:07.883Z,6.92
2018-12-02T21:14:40.110Z,7.90
2018-12-02T21:17:12.305Z,7.93
2018-12-02T21:19:44.598Z,9.47
2018-12-02T21:22:16.840Z,8.77
2018-12-02T21:24:49.496Z,10.57
2018-12-02T21:27:22.061Z,6.83
2018-12-02T21:29:54.221Z,7.63
2018-12-02T21:32:26.422Z,6.10
2018-12-02T21:34:58.810Z,6.30
2018-12-02T21:37:31.107Z,6.80
2018-12-02T21:40:03.417Z,8.40
2018-12-02T21:42:35.909Z,7.00
2018-12-02T21:45:10.219Z,7.53
2018-12-02T21:47:43.441Z,6.07
2018-12-02T21:50:18.439Z,4.63
2018-12-02T21:52:50.904Z,7.50
2018-12-02T21:55:23.270Z,5.60
2018-12-02T21:57:55.668Z,7.50
2018-12-02T22:00:33.218Z,8.60
2018-12-02T22:03:05.677Z,12.10
2018-12-02T22:05:37.986Z,6.58
2018-12-02T22:08:10.201Z,8.55
2018-12-02T22:10:42.479Z,6.05
2018-12-02T22:13:14.845Z,5.40
2018-12-02T22:15:47.332Z,6.47
2018-12-02T22:18:19.713Z,7.83
2018-12-02T22:20:52.323Z,9.73
2018-12-02T22:23:24.851Z,11.57
2018-12-02T22:25:57.521Z,10.53
2018-12-02T22:28:29.885Z,9.25
2018-12-02T22:31:02.299Z,13.40
2018-12-02T22:33:36.577Z,13.43
2018-12-02T22:36:14.040Z,10.98
2018-12-02T22:38:42.808Z,9.98
2018-12-02T22:41:15.469Z,11.05
2018-12-02T22:43:47.783Z,10.53
2018-12-02T22:46:20.601Z,12.37
2018-12-02T22:48:52.891Z,9.38
2018-12-02T22:51:26.162Z,8.55
2018-12-02T22:53:58.606Z,8.65
2018-12-02T22:56:31.142Z,6.40
2018-12-02T22:59:03.323Z,12.35
2018-12-02T23:03:46.009Z,8.43
2018-12-02T23:06:18.626Z,6.80
2018-12-02T23:08:50.514Z,7.67
2018-12-02T23:11:23.154Z,8.50
2018-12-02T23:13:55.453Z,6.72
2018-12-02T23:16:27.909Z,6.95
2018-12-02T23:19:00.359Z,7.08
2018-12-02T23:21:32.449Z,7.00
2018-12-02T23:24:04.942Z,8.93
2018-12-02T23:26:36.751Z,6.00
2018-12-02T23:29:09.333Z,5.80
2018-12-02T23:31:41.513Z,6.10
2018-12-02T23:34:14.797Z,5.87
2018-12-02T23:36:46.840Z,5.83
2018-12-02T23:39:19.368Z,6.37
2018-12-02T23:41:51.800Z,8.48
2018-12-02T23:44:24.244Z,7.95
2018-12-02T23:46:56.826Z,7.05
2018-12-02T23:49:29.173Z,6.67
2018-12-02T23:52:01.828Z,5.90
2018-12-02T23:54:34.117Z,6.10
2018-12-02T23:57:06.369Z,8.75
2018-12-02T23:59:38.870Z,5.45
